This is the latest recevied weather packets stored in our database for station/object W1REE. If no packets are shown the sender has not sent any weather packets the latest 10 day(s).
| Time | Temp. | Humidity | Pressure | Rain* | Wind** | Luminosity | Snow |
|---|---|---|---|---|---|---|---|
| 1777753830 | 19.44° C | 21% | 1022.9 hPa | 0 mm | - | 927 W/m² | - |
| 1777753526 | 20° C | 18% | 1022.9 hPa | 0 mm | - | 942 W/m² | - |
| 1777753225 | 19.44° C | 20% | 1022.6 hPa | 0 mm | - | 945 W/m² | - |
| 1777752920 | 19.44° C | 20% | 1022.9 hPa | 0 mm | - | 961 W/m² | - |
| 1777752616 | 18.89° C | 20% | 1022.9 hPa | 0 mm | - | 973 W/m² | - |
| 1777752313 | 18.89° C | 25% | 1022.9 hPa | 0 mm | - | 983 W/m² | - |
| 1777752011 | 19.44° C | 19% | 1022.9 hPa | 0 mm | - | 987 W/m² | - |
| 1777751708 | 18.33° C | 23% | 1023.1 hPa | 0 mm | - | 1002 W/m² | - |
| 1777751403 | 19.44° C | 20% | 1023.1 hPa | 0 mm | - | 1010 W/m² | - |
| 1777751101 | 19.44° C | 22% | 1023.1 hPa | 0 mm | - | 1018 W/m² | - |
| 1777750796 | 18.89° C | 22% | 1023.2 hPa | 0 mm | - | 1022 W/m² | - |
| 1777750494 | 18.33° C | 22% | 1023 hPa | 0 mm | - | 1029 W/m² | - |
| 1777750190 | 18.33° C | 22% | 1023.2 hPa | 0 mm | - | 1038 W/m² | - |
| 1777749887 | 18.89° C | 22% | 1023.1 hPa | 0 mm | - | 1041 W/m² | - |
| 1777749583 | 18.33° C | 25% | 1023.4 hPa | 0 mm | - | 1046 W/m² | - |
| 1777749281 | 18.33° C | 27% | 1023.2 hPa | 0 mm | - | 1051 W/m² | - |
| 1777748978 | 18.33° C | 23% | 1023.4 hPa | 0 mm | - | 1056 W/m² | - |
| 1777748676 | 18.89° C | 22% | 1023.6 hPa | 0 mm | - | 1055 W/m² | - |
| 1777748372 | 18.33° C | 23% | 1023.5 hPa | 0 mm | - | 1057 W/m² | - |
| 1777748067 | 18.33° C | 22% | 1023.6 hPa | 0 mm | - | 1059 W/m² | - |
| 1777747765 | 18.89° C | 23% | 1024 hPa | 0 mm | - | 1065 W/m² | - |
| 1777747460 | 19.44° C | 22% | 1023.8 hPa | 0 mm | - | 1064 W/m² | - |
| 1777747157 | 18.33° C | 24% | 1023.7 hPa | 0 mm | - | 1062 W/m² | - |
| 1777746853 | 18.33° C | 23% | 1023.8 hPa | 0 mm | - | 1062 W/m² | - |
| 1777746549 | 17.78° C | 24% | 1024 hPa | 0 mm | - | 1060 W/m² | - |
* Rain latest hour (hover to see other rain measurements)
** Current wind speed in m/s (hover to see current wind gust speed)